ROMMA est une association bénévole à but non lucratif. Votre soutien est indispensable : ADHERER à ROMMA ou FAIRE un DON

La Beaume - (05, Hautes Alpes)

Buëch (820 m)   Longitude: 5° 40' 9'' E   Latitude: 44° 32' 3'' N Station partenaire n°75
 

Détail journalier du     <<     >>

Température Precipitation Humidité Pression Vent Dir Rafale Dir. rafale Ensol.
Heure (°C) (mm) (%) (hPa) (km/h) (km/h) (min)
01:00 8.706510215ONO11NNO0
02:00 7.107110212SO6SO0
03:00 5.807710222SSO5SSO0
04:00 5.008110211O5O0
05:00 4.408210222OSO5O0
06:00 3.308510221O6O0
07:00 3.2086102203O0
08:00 2.808910222O5O0
09:00 5.108610231SO3O0
10:00 8.807410241SSO5SSE60
11:00 12.406010242SE6SE60
12:00 15.705210242ESE6ESE60
13:00 18.104410236E19SSE60
14:00 18.7043102311SE24ESE60
15:00 19.9040102211SSE24S60
16:00 20.2041102110SE21ESE60
17:00 20.1041102111SSE19SSE60
18:00 16.505210218SSO16SSE30
19:00 14.605710215SO11SSO0
20:00 12.206610221SO5SO0
21:00 10.9073102203S0
22:00 9.8078102303SSO0
23:00 8.608510231SO6SO0
minuit 8.4086102305O0

Graphique du 11-10-2019

 

Serveur OMMA